sensor_id;sensor_type;location;lat;lon;timestamp;pressure;altitude;pressure_sealevel;temperature;humidity
64739;BME280;51175;51.186;0.276;2023-04-07T00:00:18;101423.19;;;14.64;64.14
64739;BME280;51175;51.186;0.276;2023-04-07T00:00:48;101422.38;;;14.64;64.33
64739;BME280;51175;51.186;0.276;2023-04-07T00:01:19;101424.28;;;14.63;64.47
64739;BME280;51175;51.186;0.276;2023-04-07T00:01:50;101427.72;;;14.64;64.21
64739;BME280;51175;51.186;0.276;2023-04-07T00:02:21;101420.81;;;14.63;64.25
64739;BME280;51175;51.186;0.276;2023-04-07T00:02:51;101426.94;;;14.63;64.06
64739;BME280;51175;51.186;0.276;2023-04-07T00:03:21;101428.50;;;14.64;64.25
64739;BME280;51175;51.186;0.276;2023-04-07T00:03:52;101426.94;;;14.63;64.27
64739;BME280;51175;51.186;0.276;2023-04-07T00:04:23;101428.78;;;14.63;64.35
64739;BME280;51175;51.186;0.276;2023-04-07T00:04:53;101426.13;;;14.63;64.15
64739;BME280;51175;51.186;0.276;2023-04-07T00:05:23;101430.63;;;14.62;64.11
64739;BME280;51175;51.186;0.276;2023-04-07T00:05:54;101432.50;;;14.62;64.02
64739;BME280;51175;51.186;0.276;2023-04-07T00:06:24;101435.94;;;14.62;64.12
64739;BME280;51175;51.186;0.276;2023-04-07T00:06:56;101433.56;;;14.61;64.37
64739;BME280;51175;51.186;0.276;2023-04-07T00:07:26;101430.91;;;14.61;64.16
64739;BME280;51175;51.186;0.276;2023-04-07T00:07:57;101430.91;;;14.61;64.43
64739;BME280;51175;51.186;0.276;2023-04-07T00:08:27;101431.97;;;14.60;64.25
64739;BME280;51175;51.186;0.276;2023-04-07T00:08:58;101431.97;;;14.60;64.14
64739;BME280;51175;51.186;0.276;2023-04-07T00:09:28;101431.16;;;14.59;64.00
64739;BME280;51175;51.186;0.276;2023-04-07T00:09:58;101434.88;;;14.58;64.35
64739;BME280;51175;51.186;0.276;2023-04-07T00:10:29;101435.69;;;14.59;64.27
64739;BME280;51175;51.186;0.276;2023-04-07T00:10:59;101432.22;;;14.58;64.45
64739;BME280;51175;51.186;0.276;2023-04-07T00:11:30;101433.81;;;14.59;64.07
64739;BME280;51175;51.186;0.276;2023-04-07T00:12:00;101429.56;;;14.58;64.28
64739;BME280;51175;51.186;0.276;2023-04-07T00:12:31;101430.38;;;14.59;64.26
64739;BME280;51175;51.186;0.276;2023-04-07T00:13:02;101435.69;;;14.59;64.24
64739;BME280;51175;51.186;0.276;2023-04-07T00:13:33;101433.31;;;14.57;64.05
64739;BME280;51175;51.186;0.276;2023-04-07T00:14:03;101433.31;;;14.57;64.21
64739;BME280;51175;51.186;0.276;2023-04-07T00:14:33;101435.97;;;14.57;64.24
64739;BME280;51175;51.186;0.276;2023-04-07T00:15:04;101429.03;;;14.56;64.17
64739;BME280;51175;51.186;0.276;2023-04-07T00:15:36;101433.56;;;14.56;64.32
64739;BME280;51175;51.186;0.276;2023-04-07T00:16:06;101435.16;;;14.57;64.23
64739;BME280;51175;51.186;0.276;2023-04-07T00:16:36;101432.75;;;14.55;64.32
64739;BME280;51175;51.186;0.276;2023-04-07T00:17:07;101437.00;;;14.56;64.03
64739;BME280;51175;51.186;0.276;2023-04-07T00:17:37;101434.59;;;14.55;64.19
64739;BME280;51175;51.186;0.276;2023-04-07T00:18:08;101438.06;;;14.55;63.92
64739;BME280;51175;51.186;0.276;2023-04-07T00:18:38;101432.75;;;14.55;64.20
64739;BME280;51175;51.186;0.276;2023-04-07T00:19:08;101434.59;;;14.55;64.13
64739;BME280;51175;51.186;0.276;2023-04-07T00:19:39;101435.69;;;14.53;64.12
64739;BME280;51175;51.186;0.276;2023-04-07T00:20:10;101441.81;;;14.54;64.00
64739;BME280;51175;51.186;0.276;2023-04-07T00:20:40;101440.19;;;14.53;64.21
64739;BME280;51175;51.186;0.276;2023-04-07T00:21:10;101442.84;;;14.53;64.12
64739;BME280;51175;51.186;0.276;2023-04-07T00:21:41;101440.19;;;14.53;64.34
64739;BME280;51175;51.186;0.276;2023-04-07T00:22:11;101444.72;;;14.52;64.21
64739;BME280;51175;51.186;0.276;2023-04-07T00:22:41;101441.25;;;14.52;64.13
64739;BME280;51175;51.186;0.276;2023-04-07T00:23:12;101447.38;;;14.52;64.01
64739;BME280;51175;51.186;0.276;2023-04-07T00:23:42;101438.59;;;14.52;64.00
64739;BME280;51175;51.186;0.276;2023-04-07T00:24:13;101435.94;;;14.52;63.96
64739;BME280;51175;51.186;0.276;2023-04-07T00:24:43;101439.66;;;14.51;63.96
64739;BME280;51175;51.186;0.276;2023-04-07T00:25:14;101444.97;;;14.51;64.02
64739;BME280;51175;51.186;0.276;2023-04-07T00:25:46;101448.41;;;14.51;63.99
64739;BME280;51175;51.186;0.276;2023-04-07T00:26:17;101443.38;;;14.50;64.13
64739;BME280;51175;51.186;0.276;2023-04-07T00:26:47;101443.38;;;14.50;64.09
64739;BME280;51175;51.186;0.276;2023-04-07T00:27:18;101445.25;;;14.49;64.14
64739;BME280;51175;51.186;0.276;2023-04-07T00:27:48;101447.91;;;14.49;64.30
64739;BME280;51175;51.186;0.276;2023-04-07T00:28:18;101445.50;;;14.48;64.10
64739;BME280;51175;51.186;0.276;2023-04-07T00:28:49;101443.63;;;14.48;64.02
64739;BME280;51175;51.186;0.276;2023-04-07T00:29:19;101445.50;;;14.48;64.13
64739;BME280;51175;51.186;0.276;2023-04-07T00:29:50;101451.88;;;14.47;64.36
64739;BME280;51175;51.186;0.276;2023-04-07T00:30:20;101453.75;;;14.46;64.06
64739;BME280;51175;51.186;0.276;2023-04-07T00:30:50;101453.75;;;14.46;64.03
64739;BME280;51175;51.186;0.276;2023-04-07T00:31:21;101447.34;;;14.47;64.19
64739;BME280;51175;51.186;0.276;2023-04-07T00:31:51;101451.09;;;14.46;64.01
64739;BME280;51175;51.186;0.276;2023-04-07T00:32:22;101452.13;;;14.45;64.28
64739;BME280;51175;51.186;0.276;2023-04-07T00:32:52;101448.69;;;14.45;64.17
64739;BME280;51175;51.186;0.276;2023-04-07T00:33:22;101450.53;;;14.44;64.30
64739;BME280;51175;51.186;0.276;2023-04-07T00:33:53;101450.53;;;14.44;64.20
64739;BME280;51175;51.186;0.276;2023-04-07T00:34:24;101455.84;;;14.44;64.15
64739;BME280;51175;51.186;0.276;2023-04-07T00:34:55;101454.00;;;14.45;64.29
64739;BME280;51175;51.186;0.276;2023-04-07T00:35:25;101450.53;;;14.44;64.20
64739;BME280;51175;51.186;0.276;2023-04-07T00:35:56;101456.66;;;14.45;64.04
64739;BME280;51175;51.186;0.276;2023-04-07T00:36:27;101455.84;;;14.44;64.13
64739;BME280;51175;51.186;0.276;2023-04-07T00:36:58;101450.81;;;14.43;64.12
64739;BME280;51175;51.186;0.276;2023-04-07T00:37:28;101456.66;;;14.45;64.16
64739;BME280;51175;51.186;0.276;2023-04-07T00:37:58;101454.28;;;14.43;64.12
64739;BME280;51175;51.186;0.276;2023-04-07T00:38:29;101456.13;;;14.43;64.00
64739;BME280;51175;51.186;0.276;2023-04-07T00:38:59;101453.47;;;14.43;64.25
64739;BME280;51175;51.186;0.276;2023-04-07T00:39:31;101457.72;;;14.44;64.06
64739;BME280;51175;51.186;0.276;2023-04-07T00:40:02;101457.97;;;14.42;64.25
64739;BME280;51175;51.186;0.276;2023-04-07T00:40:33;101454.28;;;14.43;63.90
64739;BME280;51175;51.186;0.276;2023-04-07T00:41:04;101458.78;;;14.43;64.17
64739;BME280;51175;51.186;0.276;2023-04-07T00:41:34;101453.47;;;14.43;63.96
64739;BME280;51175;51.186;0.276;2023-04-07T00:42:05;101458.78;;;14.43;63.93
64739;BME280;51175;51.186;0.276;2023-04-07T00:42:36;101457.19;;;14.42;63.98
64739;BME280;51175;51.186;0.276;2023-04-07T00:43:06;101459.84;;;14.42;63.96
64739;BME280;51175;51.186;0.276;2023-04-07T00:43:37;101452.91;;;14.40;64.14
64739;BME280;51175;51.186;0.276;2023-04-07T00:44:07;101454.78;;;14.40;64.06
64739;BME280;51175;51.186;0.276;2023-04-07T00:44:38;101457.44;;;14.40;64.08
64739;BME280;51175;51.186;0.276;2023-04-07T00:45:08;101459.03;;;14.41;64.10
64739;BME280;51175;51.186;0.276;2023-04-07T00:45:40;101459.31;;;14.39;63.92
64739;BME280;51175;51.186;0.276;2023-04-07T00:46:11;101453.19;;;14.39;64.15
64739;BME280;51175;51.186;0.276;2023-04-07T00:46:41;101455.84;;;14.39;63.96
64739;BME280;51175;51.186;0.276;2023-04-07T00:47:11;101452.41;;;14.38;64.21
64739;BME280;51175;51.186;0.276;2023-04-07T00:47:42;101455.06;;;14.38;64.04
64739;BME280;51175;51.186;0.276;2023-04-07T00:48:13;101455.84;;;14.39;64.22
64739;BME280;51175;51.186;0.276;2023-04-07T00:48:43;101453.44;;;14.37;63.88
64739;BME280;51175;51.186;0.276;2023-04-07T00:49:15;101456.09;;;14.37;63.95
64739;BME280;51175;51.186;0.276;2023-04-07T00:49:47;101451.59;;;14.38;64.16
64739;BME280;51175;51.186;0.276;2023-04-07T00:50:17;101451.59;;;14.38;63.96
64739;BME280;51175;51.186;0.276;2023-04-07T00:50:48;101451.84;;;14.36;64.09
64739;BME280;51175;51.186;0.276;2023-04-07T00:51:20;101449.19;;;14.36;64.04
64739;BME280;51175;51.186;0.276;2023-04-07T00:51:51;101451.03;;;14.36;64.03
64739;BME280;51175;51.186;0.276;2023-04-07T00:52:23;101452.91;;;14.35;63.92
64739;BME280;51175;51.186;0.276;2023-04-07T00:52:58;101450.25;;;14.35;64.22
64739;BME280;51175;51.186;0.276;2023-04-07T00:53:28;101454.78;;;14.35;64.34
64739;BME280;51175;51.186;0.276;2023-04-07T00:53:59;101450.53;;;14.34;64.05
64739;BME280;51175;51.186;0.276;2023-04-07T00:54:29;101455.03;;;14.33;64.28
64739;BME280;51175;51.186;0.276;2023-04-07T00:55:00;101457.69;;;14.33;64.03
64739;BME280;51175;51.186;0.276;2023-04-07T00:55:30;101446.25;;;14.33;64.22
64739;BME280;51175;51.186;0.276;2023-04-07T00:56:01;101442.78;;;14.32;64.05
64739;BME280;51175;51.186;0.276;2023-04-07T00:56:31;101450.75;;;14.32;64.13
64739;BME280;51175;51.186;0.276;2023-04-07T00:57:02;101454.22;;;14.33;64.24
64739;BME280;51175;51.186;0.276;2023-04-07T00:57:32;101450.75;;;14.32;63.98
64739;BME280;51175;51.186;0.276;2023-04-07T00:58:03;101449.97;;;14.32;64.04
64739;BME280;51175;51.186;0.276;2023-04-07T00:58:34;101447.31;;;14.32;64.27
64739;BME280;51175;51.186;0.276;2023-04-07T00:59:05;101449.97;;;14.32;64.26
64739;BME280;51175;51.186;0.276;2023-04-07T00:59:36;101455.28;;;14.32;64.07
64739;BME280;51175;51.186;0.276;2023-04-07T01:00:07;101454.47;;;14.31;63.85
64739;BME280;51175;51.186;0.276;2023-04-07T01:01:07;101456.06;;;14.32;64.12
64739;BME280;51175;51.186;0.276;2023-04-07T01:01:56;101452.09;;;14.30;63.96
64739;BME280;51175;51.186;0.276;2023-04-07T01:03:00;101452.34;;;14.28;64.18
64739;BME280;51175;51.186;0.276;2023-04-07T01:04:21;101456.59;;;14.24;63.95
64739;BME280;51175;51.186;0.276;2023-04-07T01:06:05;101460.28;;;14.23;64.19
64739;BME280;51175;51.186;0.276;2023-04-07T01:06:39;101454.72;;;14.19;63.88
64739;BME280;51175;51.186;0.276;2023-04-07T01:07:22;101456.31;;;14.20;64.21
64739;BME280;51175;51.186;0.276;2023-04-07T01:08:44;101453.91;;;14.19;64.21
64739;BME280;51175;51.186;0.276;2023-04-07T01:09:20;101456.03;;;14.17;64.18
64739;BME280;51175;51.186;0.276;2023-04-07T01:09:57;101452.59;;;14.16;64.25
64739;BME280;51175;51.186;0.276;2023-04-07T01:10:37;101455.50;;;14.14;64.17
64739;BME280;51175;51.186;0.276;2023-04-07T01:11:23;101453.63;;;14.15;64.12
64739;BME280;51175;51.186;0.276;2023-04-07T01:12:24;101458.16;;;14.14;64.32
64739;BME280;51175;51.186;0.276;2023-04-07T01:14:06;101456.81;;;14.12;63.97
64739;BME280;51175;51.186;0.276;2023-04-07T01:14:46;101459.47;;;14.12;64.46
64739;BME280;51175;51.186;0.276;2023-04-07T01:15:20;101454.16;;;14.12;64.33
64739;BME280;51175;51.186;0.276;2023-04-07T01:15:53;101458.69;;;14.11;64.35
64739;BME280;51175;51.186;0.276;2023-04-07T01:16:36;101462.38;;;14.10;64.33
64739;BME280;51175;51.186;0.276;2023-04-07T01:17:09;101461.59;;;14.10;64.29
64739;BME280;51175;51.186;0.276;2023-04-07T01:17:44;101463.44;;;14.09;64.46
64739;BME280;51175;51.186;0.276;2023-04-07T01:18:23;101458.13;;;14.09;64.59
64739;BME280;51175;51.186;0.276;2023-04-07T01:19:12;101460.78;;;14.09;64.33
64739;BME280;51175;51.186;0.276;2023-04-07T01:19:46;101459.97;;;14.09;64.44
64739;BME280;51175;51.186;0.276;2023-04-07T01:20:20;101457.31;;;14.09;64.43
64739;BME280;51175;51.186;0.276;2023-04-07T01:20:55;101459.19;;;14.08;64.33
64739;BME280;51175;51.186;0.276;2023-04-07T01:21:32;101458.38;;;14.08;64.24
64739;BME280;51175;51.186;0.276;2023-04-07T01:22:07;101461.84;;;14.08;64.56
64739;BME280;51175;51.186;0.276;2023-04-07T01:22:45;101464.50;;;14.08;64.44
64739;BME280;51175;51.186;0.276;2023-04-07T01:23:22;101461.84;;;14.08;64.47
64739;BME280;51175;51.186;0.276;2023-04-07T01:25:53;101467.16;;;14.08;64.15
64739;BME280;51175;51.186;0.276;2023-04-07T01:26:31;101470.84;;;14.07;64.09
64739;BME280;51175;51.186;0.276;2023-04-07T01:27:24;101474.59;;;14.06;64.26
64739;BME280;51175;51.186;0.276;2023-04-07T01:29:48;101465.53;;;14.02;64.14
64739;BME280;51175;51.186;0.276;2023-04-07T01:30:21;101477.22;;;14.01;64.34
64739;BME280;51175;51.186;0.276;2023-04-07T01:30:55;101467.66;;;14.00;64.39
64739;BME280;51175;51.186;0.276;2023-04-07T01:31:27;101469.50;;;13.99;64.37
64739;BME280;51175;51.186;0.276;2023-04-07T01:31:59;101471.34;;;13.99;64.27
64739;BME280;51175;51.186;0.276;2023-04-07T01:32:32;101472.16;;;13.99;64.31
64739;BME280;51175;51.186;0.276;2023-04-07T01:33:05;101469.50;;;13.99;64.64
64739;BME280;51175;51.186;0.276;2023-04-07T01:33:38;101474.00;;;13.99;64.26
64739;BME280;51175;51.186;0.276;2023-04-07T01:34:13;101468.69;;;13.99;64.51
64739;BME280;51175;51.186;0.276;2023-04-07T01:34:47;101466.84;;;13.99;64.30
64739;BME280;51175;51.186;0.276;2023-04-07T01:35:18;101470.56;;;13.98;64.54
64739;BME280;51175;51.186;0.276;2023-04-07T01:35:50;101471.34;;;13.99;64.39
64739;BME280;51175;51.186;0.276;2023-04-07T01:36:22;101470.03;;;14.01;64.51
64739;BME280;51175;51.186;0.276;2023-04-07T01:36:53;101474.56;;;14.01;64.46
64739;BME280;51175;51.186;0.276;2023-04-07T01:37:26;101467.38;;;14.01;64.38
64739;BME280;51175;51.186;0.276;2023-04-07T01:37:58;101469.25;;;14.01;64.18
64739;BME280;51175;51.186;0.276;2023-04-07T01:38:29;101459.44;;;14.01;64.47
64739;BME280;51175;51.186;0.276;2023-04-07T01:39:01;101467.38;;;14.01;64.22
64739;BME280;51175;51.186;0.276;2023-04-07T01:39:32;101462.88;;;14.02;64.15
64739;BME280;51175;51.186;0.276;2023-04-07T01:40:04;101459.44;;;14.01;64.19
64739;BME280;51175;51.186;0.276;2023-04-07T01:40:37;101465.53;;;14.02;64.49
64739;BME280;51175;51.186;0.276;2023-04-07T01:41:09;101469.25;;;14.01;64.38
64739;BME280;51175;51.186;0.276;2023-04-07T01:41:41;101470.03;;;14.01;64.48
64739;BME280;51175;51.186;0.276;2023-04-07T01:42:14;101463.16;;;14.00;64.28
64739;BME280;51175;51.186;0.276;2023-04-07T01:42:46;101469.25;;;14.01;64.27
64739;BME280;51175;51.186;0.276;2023-04-07T01:43:17;101463.16;;;14.00;64.36
64739;BME280;51175;51.186;0.276;2023-04-07T01:43:50;101466.59;;;14.01;64.30
64739;BME280;51175;51.186;0.276;2023-04-07T01:44:21;101466.59;;;14.01;64.27
64739;BME280;51175;51.186;0.276;2023-04-07T01:44:53;101465.81;;;14.00;64.20
64739;BME280;51175;51.186;0.276;2023-04-07T01:45:25;101461.28;;;14.01;64.11
64739;BME280;51175;51.186;0.276;2023-04-07T01:45:56;101458.63;;;14.01;64.38
64739;BME280;51175;51.186;0.276;2023-04-07T01:46:27;101465.53;;;14.02;64.09
64739;BME280;51175;51.186;0.276;2023-04-07T01:46:58;101460.22;;;14.02;64.06
64739;BME280;51175;51.186;0.276;2023-04-07T01:47:29;101459.44;;;14.01;64.27
64739;BME280;51175;51.186;0.276;2023-04-07T01:48:00;101470.84;;;14.02;64.03
64739;BME280;51175;51.186;0.276;2023-04-07T01:48:31;101468.19;;;14.02;63.83
64739;BME280;51175;51.186;0.276;2023-04-07T01:49:03;101461.00;;;14.02;64.18
64739;BME280;51175;51.186;0.276;2023-04-07T01:49:35;101464.47;;;14.03;63.92
64739;BME280;51175;51.186;0.276;2023-04-07T01:50:07;101461.00;;;14.02;64.22
64739;BME280;51175;51.186;0.276;2023-04-07T01:50:38;101462.63;;;14.03;64.03
64739;BME280;51175;51.186;0.276;2023-04-07T01:51:09;101461.81;;;14.03;64.00
64739;BME280;51175;51.186;0.276;2023-04-07T01:51:41;101462.88;;;14.02;63.91
64739;BME280;51175;51.186;0.276;2023-04-07T01:52:13;101467.94;;;14.03;63.79
64739;BME280;51175;51.186;0.276;2023-04-07T01:52:43;101461.81;;;14.03;63.94
64739;BME280;51175;51.186;0.276;2023-04-07T01:53:14;101467.13;;;14.03;63.99
64739;BME280;51175;51.186;0.276;2023-04-07T01:53:45;101454.91;;;14.02;63.88
64739;BME280;51175;51.186;0.276;2023-04-07T01:54:17;101464.47;;;14.03;64.08
64739;BME280;51175;51.186;0.276;2023-04-07T01:54:48;101453.03;;;14.02;63.72
64739;BME280;51175;51.186;0.276;2023-04-07T01:55:18;101462.88;;;14.02;63.88
64739;BME280;51175;51.186;0.276;2023-04-07T01:55:49;101459.44;;;14.01;64.08
64739;BME280;51175;51.186;0.276;2023-04-07T01:56:21;101458.63;;;14.01;64.11
64739;BME280;51175;51.186;0.276;2023-04-07T01:56:51;101463.16;;;14.00;64.07
64739;BME280;51175;51.186;0.276;2023-04-07T01:57:22;101464.75;;;14.01;63.87
64739;BME280;51175;51.186;0.276;2023-04-07T01:57:52;101467.38;;;14.01;64.03
64739;BME280;51175;51.186;0.276;2023-04-07T01:58:23;101458.63;;;14.01;64.04
64739;BME280;51175;51.186;0.276;2023-04-07T01:58:55;101461.28;;;14.01;63.81
64739;BME280;51175;51.186;0.276;2023-04-07T01:59:25;101459.44;;;14.01;64.13
64739;BME280;51175;51.186;0.276;2023-04-07T01:59:56;101464.75;;;14.01;63.86
64739;BME280;51175;51.186;0.276;2023-04-07T02:00:26;101464.75;;;14.01;63.73
64739;BME280;51175;51.186;0.276;2023-04-07T02:00:56;101461.28;;;14.01;64.05
64739;BME280;51175;51.186;0.276;2023-04-07T02:01:28;101462.09;;;14.01;63.86
64739;BME280;51175;51.186;0.276;2023-04-07T02:01:58;101465.81;;;14.00;63.97
64739;BME280;51175;51.186;0.276;2023-04-07T02:02:29;101467.38;;;14.01;63.85
64739;BME280;51175;51.186;0.276;2023-04-07T02:03:08;101458.63;;;14.01;63.76
64739;BME280;51175;51.186;0.276;2023-04-07T02:04:44;101464.44;;;13.98;63.78
64739;BME280;51175;51.186;0.276;2023-04-07T02:05:19;101459.66;;;13.95;63.81
64739;BME280;51175;51.186;0.276;2023-04-07T02:05:56;101466.81;;;13.94;63.96
64739;BME280;51175;51.186;0.276;2023-04-07T02:06:33;101462.56;;;13.93;63.92
64739;BME280;51175;51.186;0.276;2023-04-07T02:08:01;101467.88;;;13.93;63.92
64739;BME280;51175;51.186;0.276;2023-04-07T02:08:35;101463.63;;;13.92;64.06
64739;BME280;51175;51.186;0.276;2023-04-07T02:09:06;101463.63;;;13.92;63.96
64739;BME280;51175;51.186;0.276;2023-04-07T02:09:41;101458.56;;;13.90;64.08
64739;BME280;51175;51.186;0.276;2023-04-07T02:10:14;101457.50;;;13.92;64.07
64739;BME280;51175;51.186;0.276;2023-04-07T02:10:46;101458.56;;;13.90;64.03
64739;BME280;51175;51.186;0.276;2023-04-07T02:11:19;101461.22;;;13.90;63.88
64739;BME280;51175;51.186;0.276;2023-04-07T02:11:52;101463.88;;;13.90;64.03
64739;BME280;51175;51.186;0.276;2023-04-07T02:12:28;101463.88;;;13.90;64.19
64739;BME280;51175;51.186;0.276;2023-04-07T02:13:02;101462.28;;;13.89;63.90
64739;BME280;51175;51.186;0.276;2023-04-07T02:13:36;101464.16;;;13.89;63.99
64739;BME280;51175;51.186;0.276;2023-04-07T02:14:07;101462.28;;;13.89;63.95
64739;BME280;51175;51.186;0.276;2023-04-07T02:14:38;101464.16;;;13.89;64.04
64739;BME280;51175;51.186;0.276;2023-04-07T02:15:09;101466.00;;;13.88;64.04
64739;BME280;51175;51.186;0.276;2023-04-07T02:15:42;101460.69;;;13.88;63.99
64739;BME280;51175;51.186;0.276;2023-04-07T02:16:15;101460.69;;;13.88;64.14
64739;BME280;51175;51.186;0.276;2023-04-07T02:16:46;101462.53;;;13.88;64.09
64739;BME280;51175;51.186;0.276;2023-04-07T02:17:18;101466.81;;;13.89;64.15
64739;BME280;51175;51.186;0.276;2023-04-07T02:17:51;101461.75;;;13.87;64.01
64739;BME280;51175;51.186;0.276;2023-04-07T02:18:22;101466.81;;;13.89;63.89
64739;BME280;51175;51.186;0.276;2023-04-07T02:18:53;101459.09;;;13.87;63.83
64739;BME280;51175;51.186;0.276;2023-04-07T02:19:24;101465.19;;;13.88;63.88
64739;BME280;51175;51.186;0.276;2023-04-07T02:19:56;101470.50;;;13.88;63.83
64739;BME280;51175;51.186;0.276;2023-04-07T02:20:28;101477.44;;;13.89;64.11
64739;BME280;51175;51.186;0.276;2023-04-07T02:20:59;101466.00;;;13.88;63.75
64739;BME280;51175;51.186;0.276;2023-04-07T02:21:33;101470.50;;;13.88;63.91
64739;BME280;51175;51.186;0.276;2023-04-07T02:22:04;101467.06;;;13.87;63.85
64739;BME280;51175;51.186;0.276;2023-04-07T02:22:37;101467.84;;;13.88;63.90
64739;BME280;51175;51.186;0.276;2023-04-07T02:23:08;101473.16;;;13.88;63.77
64739;BME280;51175;51.186;0.276;2023-04-07T02:23:38;101473.97;;;13.88;64.09
64739;BME280;51175;51.186;0.276;2023-04-07T02:24:10;101472.91;;;13.89;64.00
64739;BME280;51175;51.186;0.276;2023-04-07T02:24:41;101472.13;;;13.89;64.02
64739;BME280;51175;51.186;0.276;2023-04-07T02:25:22;101468.66;;;13.88;63.80
64739;BME280;51175;51.186;0.276;2023-04-07T02:25:55;101470.50;;;13.88;64.00
64739;BME280;51175;51.186;0.276;2023-04-07T02:26:27;101471.56;;;13.87;63.75
64739;BME280;51175;51.186;0.276;2023-04-07T02:26:57;101472.38;;;13.87;63.82
64739;BME280;51175;51.186;0.276;2023-04-07T02:27:30;101468.91;;;13.87;64.01
64739;BME280;51175;51.186;0.276;2023-04-07T02:28:00;101470.75;;;13.86;63.80
64739;BME280;51175;51.186;0.276;2023-04-07T02:28:30;101464.66;;;13.86;63.85
64739;BME280;51175;51.186;0.276;2023-04-07T02:29:02;101467.31;;;13.86;63.77
64739;BME280;51175;51.186;0.276;2023-04-07T02:29:33;101464.66;;;13.86;64.03
64739;BME280;51175;51.186;0.276;2023-04-07T02:30:03;101466.50;;;13.85;64.04
64739;BME280;51175;51.186;0.276;2023-04-07T02:30:34;101471.00;;;13.85;63.88
64739;BME280;51175;51.186;0.276;2023-04-07T02:31:05;101463.84;;;13.85;63.74
64739;BME280;51175;51.186;0.276;2023-04-07T02:31:35;101466.50;;;13.85;63.88
64739;BME280;51175;51.186;0.276;2023-04-07T02:32:06;101468.34;;;13.85;63.77
64739;BME280;51175;51.186;0.276;2023-04-07T02:32:36;101460.41;;;13.85;64.05
64739;BME280;51175;51.186;0.276;2023-04-07T02:33:06;101463.03;;;13.85;63.85
64739;BME280;51175;51.186;0.276;2023-04-07T02:33:37;101464.91;;;13.84;63.84
64739;BME280;51175;51.186;0.276;2023-04-07T02:34:07;101471.00;;;13.85;63.95
64739;BME280;51175;51.186;0.276;2023-04-07T02:34:37;101464.13;;;13.84;63.86
64739;BME280;51175;51.186;0.276;2023-04-07T02:35:09;101462.25;;;13.84;63.70
64739;BME280;51175;51.186;0.276;2023-04-07T02:35:40;101467.56;;;13.84;63.88
64739;BME280;51175;51.186;0.276;2023-04-07T02:36:11;101464.13;;;13.84;63.96
64739;BME280;51175;51.186;0.276;2023-04-07T02:36:41;101465.97;;;13.83;63.77
64739;BME280;51175;51.186;0.276;2023-04-07T02:37:11;101473.16;;;13.83;63.78
64739;BME280;51175;51.186;0.276;2023-04-07T02:37:43;101461.72;;;13.82;63.96
64739;BME280;51175;51.186;0.276;2023-04-07T02:38:14;101469.69;;;13.82;63.87
64739;BME280;51175;51.186;0.276;2023-04-07T02:38:44;101467.28;;;13.81;63.98
64739;BME280;51175;51.186;0.276;2023-04-07T02:39:15;101465.44;;;13.81;63.81
64739;BME280;51175;51.186;0.276;2023-04-07T02:39:45;101465.69;;;13.80;63.68
64739;BME280;51175;51.186;0.276;2023-04-07T02:40:16;101463.81;;;13.80;63.87
64739;BME280;51175;51.186;0.276;2023-04-07T02:40:46;101463.03;;;13.80;63.83
64739;BME280;51175;51.186;0.276;2023-04-07T02:41:16;101462.22;;;13.79;63.94
64739;BME280;51175;51.186;0.276;2023-04-07T02:41:47;101467.53;;;13.79;64.01
64739;BME280;51175;51.186;0.276;2023-04-07T02:42:17;101464.06;;;13.78;63.87
64739;BME280;51175;51.186;0.276;2023-04-07T02:42:48;101471.00;;;13.80;63.63
64739;BME280;51175;51.186;0.276;2023-04-07T02:43:19;101462.22;;;13.79;63.69
64739;BME280;51175;51.186;0.276;2023-04-07T02:43:50;101460.66;;;13.78;63.83
64739;BME280;51175;51.186;0.276;2023-04-07T02:44:20;101465.94;;;13.78;63.77
64739;BME280;51175;51.186;0.276;2023-04-07T02:44:51;101465.94;;;13.78;63.77
64739;BME280;51175;51.186;0.276;2023-04-07T02:45:21;101457.19;;;13.77;63.88
64739;BME280;51175;51.186;0.276;2023-04-07T02:45:51;101464.06;;;13.78;63.93
64739;BME280;51175;51.186;0.276;2023-04-07T02:46:22;101461.69;;;13.77;63.93
64739;BME280;51175;51.186;0.276;2023-04-07T02:46:52;101458.25;;;13.76;64.01
64739;BME280;51175;51.186;0.276;2023-04-07T02:47:23;101462.75;;;13.76;63.99
64739;BME280;51175;51.186;0.276;2023-04-07T02:47:54;101463.56;;;13.76;63.94
64739;BME280;51175;51.186;0.276;2023-04-07T02:48:24;101462.75;;;13.76;63.86
64739;BME280;51175;51.186;0.276;2023-04-07T02:48:54;101461.69;;;13.77;63.84
64739;BME280;51175;51.186;0.276;2023-04-07T02:49:25;101460.09;;;13.76;63.57
64739;BME280;51175;51.186;0.276;2023-04-07T02:49:55;101464.34;;;13.77;63.92
64739;BME280;51175;51.186;0.276;2023-04-07T02:50:26;101455.84;;;13.75;63.64
64739;BME280;51175;51.186;0.276;2023-04-07T02:50:58;101459.53;;;13.74;63.65
64739;BME280;51175;51.186;0.276;2023-04-07T02:51:28;101461.16;;;13.75;63.68
64739;BME280;51175;51.186;0.276;2023-04-07T02:51:58;101463.00;;;13.74;63.57
64739;BME280;51175;51.186;0.276;2023-04-07T02:52:29;101463.00;;;13.74;63.89
64739;BME280;51175;51.186;0.276;2023-04-07T02:52:59;101461.94;;;13.75;63.87
64739;BME280;51175;51.186;0.276;2023-04-07T02:53:29;101466.47;;;13.75;63.68
64739;BME280;51175;51.186;0.276;2023-04-07T02:54:00;101466.47;;;13.75;63.78
64739;BME280;51175;51.186;0.276;2023-04-07T02:54:30;101464.59;;;13.75;63.77
64739;BME280;51175;51.186;0.276;2023-04-07T02:55:01;101460.34;;;13.74;63.66
64739;BME280;51175;51.186;0.276;2023-04-07T02:55:31;101468.31;;;13.74;63.70
64739;BME280;51175;51.186;0.276;2023-04-07T02:56:02;101464.84;;;13.74;63.72
64739;BME280;51175;51.186;0.276;2023-04-07T02:56:32;101469.91;;;13.75;63.78
64739;BME280;51175;51.186;0.276;2023-04-07T02:57:03;101464.84;;;13.74;63.81
64739;BME280;51175;51.186;0.276;2023-04-07T02:57:33;101464.06;;;13.73;63.79